createdAt,value
2019-03-30T00:02:16.422Z,9.10
2019-03-30T00:04:47.744Z,9.10
2019-03-30T00:07:19.408Z,9.10
2019-03-30T00:09:50.906Z,9.10
2019-03-30T00:12:23.140Z,9.10
2019-03-30T00:14:54.478Z,9.10
2019-03-30T00:17:25.637Z,9.00
2019-03-30T00:19:56.742Z,9.00
2019-03-30T00:22:28.158Z,9.00
2019-03-30T00:24:59.354Z,8.90
2019-03-30T00:27:30.995Z,8.90
2019-03-30T00:30:03.194Z,8.90
2019-03-30T00:32:34.683Z,8.90
2019-03-30T00:35:06.223Z,8.80
2019-03-30T00:37:37.794Z,8.80
2019-03-30T00:40:08.998Z,8.80
2019-03-30T00:42:42.183Z,8.80
2019-03-30T00:45:13.413Z,8.80
2019-03-30T00:47:44.838Z,8.80
2019-03-30T00:50:17.841Z,8.80
2019-03-30T00:52:49.355Z,8.80
2019-03-30T00:55:20.768Z,8.80
2019-03-30T00:57:51.912Z,8.80
2019-03-30T01:00:23.500Z,8.80
2019-03-30T01:02:55.006Z,8.70
2019-03-30T01:05:26.253Z,8.70
2019-03-30T01:07:57.677Z,8.70
2019-03-30T01:10:28.885Z,8.70
2019-03-30T01:13:00.476Z,8.70
2019-03-30T01:15:31.997Z,8.70
2019-03-30T01:18:03.273Z,8.70
2019-03-30T01:20:34.559Z,8.70
2019-03-30T01:23:06.360Z,8.60
2019-03-30T01:25:37.795Z,8.60
2019-03-30T01:28:09.286Z,8.60
2019-03-30T01:30:40.959Z,8.60
2019-03-30T01:33:12.495Z,8.60
2019-03-30T01:35:44.186Z,8.60
2019-03-30T01:38:15.530Z,8.60
2019-03-30T01:40:47.284Z,8.60
2019-03-30T01:43:18.433Z,8.50
2019-03-30T01:45:49.829Z,8.50
2019-03-30T01:48:21.193Z,8.50
2019-03-30T01:50:52.642Z,8.50
2019-03-30T01:53:23.824Z,8.50
2019-03-30T01:55:55.238Z,8.50
2019-03-30T01:58:26.427Z,8.50
2019-03-30T02:00:58.080Z,8.40
2019-03-30T02:03:29.818Z,8.40
2019-03-30T02:06:01.330Z,8.40
2019-03-30T02:08:32.639Z,8.40
2019-03-30T02:11:03.665Z,8.30
2019-03-30T02:13:35.108Z,8.40
2019-03-30T02:16:06.276Z,8.40
2019-03-30T02:18:37.734Z,8.40
2019-03-30T02:21:09.354Z,8.40
2019-03-30T02:23:41.163Z,8.40
2019-03-30T02:26:13.588Z,8.30
2019-03-30T02:28:44.803Z,8.30
2019-03-30T02:31:16.188Z,8.30
2019-03-30T02:33:47.704Z,8.30
2019-03-30T02:36:18.915Z,8.30
2019-03-30T02:38:50.360Z,8.30
2019-03-30T02:41:21.675Z,8.30
2019-03-30T02:43:52.769Z,8.30
2019-03-30T02:46:23.998Z,8.20
2019-03-30T02:48:55.453Z,8.20
2019-03-30T02:51:26.637Z,8.20
2019-03-30T02:53:58.989Z,8.20
2019-03-30T02:56:30.347Z,8.20
2019-03-30T02:59:01.597Z,8.20
2019-03-30T03:01:33.589Z,8.20
2019-03-30T03:04:04.829Z,8.10
2019-03-30T03:06:36.079Z,8.10
2019-03-30T03:09:09.337Z,8.10
2019-03-30T03:11:41.210Z,8.10
2019-03-30T03:14:12.443Z,8.10
2019-03-30T03:16:44.128Z,8.10
2019-03-30T03:19:15.663Z,8.00
2019-03-30T03:21:47.992Z,8.00
2019-03-30T03:24:19.418Z,8.00
2019-03-30T03:26:50.611Z,8.00
2019-03-30T03:29:21.868Z,8.00
2019-03-30T03:31:53.427Z,8.00
2019-03-30T03:34:25.874Z,7.90
2019-03-30T03:36:57.071Z,7.90
2019-03-30T03:39:28.659Z,7.90
2019-03-30T03:42:00.174Z,7.90
2019-03-30T03:44:31.422Z,7.90
2019-03-30T03:47:02.958Z,7.90
2019-03-30T03:49:34.096Z,7.90
2019-03-30T03:52:06.172Z,7.80
2019-03-30T03:54:37.655Z,7.80
2019-03-30T03:57:11.887Z,7.80
2019-03-30T03:59:43.630Z,7.80
2019-03-30T04:02:17.099Z,7.80
2019-03-30T04:04:50.648Z,7.80
2019-03-30T04:07:23.796Z,7.80
2019-03-30T04:09:57.838Z,7.80
2019-03-30T04:12:30.912Z,7.80
2019-03-30T04:15:03.874Z,7.70
2019-03-30T04:17:35.867Z,7.70
2019-03-30T04:20:07.886Z,7.70
2019-03-30T04:22:39.379Z,7.70
2019-03-30T04:25:10.870Z,7.70
2019-03-30T04:27:44.017Z,7.60
2019-03-30T04:30:15.283Z,7.60
2019-03-30T04:32:46.451Z,7.60
2019-03-30T04:35:17.916Z,7.60
2019-03-30T04:37:49.326Z,7.60
2019-03-30T04:40:20.803Z,7.60
2019-03-30T04:42:52.457Z,7.60
2019-03-30T04:45:23.724Z,7.60
2019-03-30T04:47:55.131Z,7.60
2019-03-30T04:50:26.663Z,7.60
2019-03-30T04:52:58.078Z,7.60
2019-03-30T04:55:29.487Z,7.60
2019-03-30T04:58:00.793Z,7.60
2019-03-30T05:00:32.631Z,7.60
2019-03-30T05:03:05.083Z,7.60
2019-03-30T05:05:36.354Z,7.60
2019-03-30T05:08:07.903Z,7.60
2019-03-30T05:10:39.447Z,7.60
2019-03-30T05:13:10.871Z,7.60
2019-03-30T05:15:42.080Z,7.60
2019-03-30T05:18:14.104Z,7.60
2019-03-30T05:20:45.426Z,7.60
2019-03-30T05:23:16.905Z,7.60
2019-03-30T05:25:48.443Z,7.60
2019-03-30T05:28:19.697Z,7.70
2019-03-30T05:30:51.054Z,7.70
2019-03-30T05:33:22.511Z,7.70
2019-03-30T05:35:53.759Z,7.70
2019-03-30T05:38:25.316Z,7.70
2019-03-30T05:40:57.083Z,7.70
2019-03-30T05:43:28.623Z,7.80
2019-03-30T05:45:59.814Z,7.80
2019-03-30T05:48:30.960Z,7.80
2019-03-30T05:51:02.497Z,7.80
2019-03-30T05:53:33.825Z,7.80
2019-03-30T05:56:05.260Z,7.80
2019-03-30T05:58:36.439Z,7.80
2019-03-30T06:01:07.872Z,7.90
2019-03-30T06:03:39.587Z,7.90
2019-03-30T06:06:11.192Z,7.90
2019-03-30T06:08:42.615Z,7.90
2019-03-30T06:11:14.295Z,7.90
2019-03-30T06:13:45.492Z,8.00
2019-03-30T06:16:16.935Z,8.00
2019-03-30T06:18:48.558Z,8.10
2019-03-30T06:21:19.837Z,8.10
2019-03-30T06:23:51.086Z,8.10
2019-03-30T06:26:23.005Z,8.20
2019-03-30T06:28:54.428Z,8.20
2019-03-30T06:31:25.659Z,8.20
2019-03-30T06:33:56.739Z,8.20
2019-03-30T06:36:28.630Z,8.20
2019-03-30T06:38:59.679Z,8.20
2019-03-30T06:41:31.100Z,8.30
2019-03-30T06:44:02.274Z,8.30
2019-03-30T06:46:33.723Z,8.40
2019-03-30T06:49:05.343Z,8.40
2019-03-30T06:51:36.846Z,8.40
2019-03-30T06:54:08.555Z,8.50
2019-03-30T06:56:39.862Z,8.50
2019-03-30T06:59:11.582Z,8.60
2019-03-30T07:01:44.368Z,8.60
2019-03-30T07:04:16.239Z,8.70
2019-03-30T07:06:48.722Z,8.70
2019-03-30T07:09:22.963Z,8.80
2019-03-30T07:11:57.088Z,8.80
2019-03-30T07:14:31.221Z,8.90
2019-03-30T07:17:04.890Z,9.00
2019-03-30T07:19:39.710Z,9.00
2019-03-30T07:22:10.998Z,9.10
2019-03-30T07:24:42.371Z,9.20
2019-03-30T07:27:13.647Z,9.20
2019-03-30T07:29:45.032Z,9.30
2019-03-30T07:32:16.187Z,9.40
2019-03-30T07:34:47.514Z,9.50
2019-03-30T07:37:19.016Z,9.60
2019-03-30T07:39:50.188Z,9.70
2019-03-30T07:42:21.608Z,9.80
2019-03-30T07:44:52.815Z,9.90
2019-03-30T07:47:24.218Z,9.90
2019-03-30T07:49:55.343Z,10.10
2019-03-30T07:52:27.015Z,10.20
2019-03-30T07:54:58.698Z,10.20
2019-03-30T07:57:30.302Z,10.30
2019-03-30T08:00:01.954Z,10.40
2019-03-30T08:02:33.831Z,10.50
2019-03-30T08:05:05.318Z,10.60
2019-03-30T08:07:37.110Z,10.70
2019-03-30T08:10:08.319Z,10.70
2019-03-30T08:12:39.634Z,10.80
2019-03-30T08:15:11.693Z,11.00
2019-03-30T08:17:43.356Z,11.20
2019-03-30T08:20:15.038Z,11.40
2019-03-30T08:22:46.322Z,11.60
2019-03-30T08:25:17.824Z,11.90
2019-03-30T08:27:49.061Z,12.30
2019-03-30T08:30:21.603Z,13.60
2019-03-30T08:32:53.015Z,15.00
2019-03-30T08:35:24.730Z,16.80
2019-03-30T08:37:56.534Z,18.70
2019-03-30T08:40:28.163Z,19.40
2019-03-30T08:42:59.508Z,21.60
2019-03-30T08:45:30.797Z,24.40
2019-03-30T08:48:02.002Z,24.90
2019-03-30T08:50:34.526Z,23.60
2019-03-30T08:53:05.649Z,23.60
2019-03-30T08:55:37.130Z,22.60
2019-03-30T08:58:09.086Z,23.20
2019-03-30T09:00:43.991Z,23.50
2019-03-30T09:03:15.471Z,23.10
2019-03-30T09:05:46.843Z,26.00
2019-03-30T09:08:18.450Z,24.40
2019-03-30T09:10:51.540Z,24.70
2019-03-30T09:13:23.383Z,24.80
2019-03-30T09:15:55.168Z,27.60
2019-03-30T09:18:26.332Z,27.70
2019-03-30T09:20:57.756Z,26.20
2019-03-30T09:23:29.022Z,25.70
2019-03-30T09:26:00.051Z,24.80
2019-03-30T09:28:31.582Z,27.10
2019-03-30T09:31:03.352Z,29.30
2019-03-30T09:33:34.546Z,27.60
2019-03-30T09:36:05.804Z,29.60
2019-03-30T09:38:37.033Z,32.40
2019-03-30T09:41:08.441Z,34.90
2019-03-30T09:43:39.971Z,36.70
2019-03-30T09:46:11.486Z,38.70
2019-03-30T09:48:43.074Z,36.20
2019-03-30T09:51:15.965Z,34.30
2019-03-30T09:53:47.210Z,32.30
2019-03-30T09:56:18.482Z,30.60
2019-03-30T09:58:49.866Z,28.70
2019-03-30T10:01:20.975Z,27.90
2019-03-30T10:03:52.697Z,27.20
2019-03-30T10:06:33.784Z,30.00
2019-03-30T10:08:58.097Z,28.00
2019-03-30T10:11:29.338Z,26.40
2019-03-30T10:14:00.525Z,25.50
2019-03-30T10:16:31.781Z,27.40
2019-03-30T10:19:04.500Z,29.20
2019-03-30T10:21:35.918Z,27.10
2019-03-30T10:24:07.138Z,25.60
2019-03-30T10:26:38.336Z,28.80
2019-03-30T10:29:09.581Z,27.90
2019-03-30T10:31:41.235Z,30.90
2019-03-30T10:34:12.642Z,32.50
2019-03-30T10:36:43.938Z,32.60
2019-03-30T10:39:18.710Z,30.40
2019-03-30T10:41:50.471Z,28.90
2019-03-30T10:44:22.145Z,27.20
2019-03-30T10:46:53.586Z,26.10
2019-03-30T10:49:24.814Z,25.60
2019-03-30T10:51:55.867Z,29.30
2019-03-30T10:54:27.082Z,31.70
2019-03-30T10:56:58.930Z,33.20
2019-03-30T10:59:30.750Z,32.00
2019-03-30T11:02:05.016Z,33.20
2019-03-30T11:04:37.716Z,34.50
2019-03-30T11:07:09.439Z,33.60
2019-03-30T11:09:41.134Z,34.20
2019-03-30T11:12:12.674Z,35.20
2019-03-30T11:14:44.142Z,36.50
2019-03-30T11:17:19.335Z,37.90
2019-03-30T11:19:50.179Z,38.90
2019-03-30T11:22:21.746Z,39.40
2019-03-30T11:25:06.261Z,40.30
2019-03-30T11:27:26.328Z,40.70
2019-03-30T11:29:57.582Z,40.80
2019-03-30T11:32:29.256Z,40.70
2019-03-30T11:35:00.677Z,40.30
2019-03-30T11:37:32.113Z,40.10
2019-03-30T11:40:03.780Z,39.70
2019-03-30T11:42:35.542Z,38.20
2019-03-30T11:45:07.122Z,37.80
2019-03-30T11:47:38.443Z,36.20
2019-03-30T11:50:10.196Z,35.20
2019-03-30T11:52:41.812Z,34.20
2019-03-30T11:55:21.633Z,33.80
2019-03-30T11:57:48.010Z,33.40
2019-03-30T12:00:19.514Z,32.80
2019-03-30T12:02:50.769Z,32.20
2019-03-30T12:05:22.321Z,31.40
2019-03-30T12:07:54.020Z,30.40
2019-03-30T12:10:25.742Z,29.60
2019-03-30T12:12:56.996Z,28.90
2019-03-30T12:15:28.261Z,28.20
2019-03-30T12:17:59.846Z,27.60
2019-03-30T12:20:31.338Z,27.10
2019-03-30T12:23:03.202Z,26.70
2019-03-30T12:25:35.864Z,26.30
2019-03-30T12:28:11.150Z,26.10
2019-03-30T12:30:42.761Z,25.80
2019-03-30T12:33:14.110Z,25.70
2019-03-30T12:35:49.015Z,25.50
2019-03-30T12:38:20.438Z,25.40
2019-03-30T12:40:54.067Z,25.20
2019-03-30T12:43:25.251Z,25.00
2019-03-30T12:45:57.152Z,24.80
2019-03-30T12:48:28.481Z,24.70
2019-03-30T12:50:59.580Z,24.50
2019-03-30T12:53:30.991Z,24.30
2019-03-30T12:56:02.785Z,24.00
2019-03-30T12:58:33.975Z,23.80
2019-03-30T13:01:05.932Z,23.60
2019-03-30T13:03:37.324Z,23.40
2019-03-30T13:06:08.763Z,23.30
2019-03-30T13:08:40.359Z,23.00
2019-03-30T13:11:12.215Z,22.70
2019-03-30T13:13:43.860Z,22.60
2019-03-30T13:16:15.317Z,22.40
2019-03-30T13:18:47.685Z,22.20
2019-03-30T13:21:19.162Z,22.00
2019-03-30T13:23:50.590Z,21.90
2019-03-30T13:26:23.194Z,21.80
2019-03-30T13:28:55.066Z,21.70
2019-03-30T13:31:26.453Z,21.50
2019-03-30T13:33:57.678Z,21.30
2019-03-30T13:36:42.278Z,21.10
2019-03-30T13:39:13.644Z,21.00
2019-03-30T13:41:44.896Z,20.80
2019-03-30T13:44:16.086Z,20.70
2019-03-30T13:46:47.510Z,20.50
2019-03-30T13:49:18.783Z,20.30
2019-03-30T13:51:50.194Z,20.10
2019-03-30T13:54:22.102Z,19.90
2019-03-30T13:56:53.310Z,19.80
2019-03-30T13:59:24.801Z,19.60
2019-03-30T14:01:56.148Z,19.40
2019-03-30T14:04:27.424Z,19.20
2019-03-30T14:06:59.048Z,19.00
2019-03-30T14:09:30.255Z,18.80
2019-03-30T14:12:01.905Z,18.70
2019-03-30T14:14:33.779Z,18.60
2019-03-30T14:17:05.392Z,18.40
2019-03-30T14:19:36.990Z,18.20
2019-03-30T14:22:08.401Z,18.10
2019-03-30T14:24:39.579Z,18.00
2019-03-30T14:27:11.263Z,17.90
2019-03-30T14:29:43.078Z,17.80
2019-03-30T14:32:14.529Z,17.60
2019-03-30T14:34:45.666Z,17.50
2019-03-30T14:37:17.082Z,17.40
2019-03-30T14:39:48.602Z,17.30
2019-03-30T14:42:20.736Z,17.20
2019-03-30T14:44:52.420Z,17.10
2019-03-30T14:47:23.559Z,17.00
2019-03-30T14:49:55.045Z,17.00
2019-03-30T14:52:26.530Z,16.90
2019-03-30T14:54:57.724Z,16.70
2019-03-30T14:57:29.014Z,16.60
2019-03-30T15:00:00.666Z,16.50
2019-03-30T15:02:32.083Z,16.40
2019-03-30T15:05:03.378Z,16.40
2019-03-30T15:07:34.587Z,16.30
2019-03-30T15:10:07.053Z,16.20
2019-03-30T15:12:38.683Z,16.20
2019-03-30T15:15:10.951Z,16.10
2019-03-30T15:17:42.204Z,16.00
2019-03-30T15:20:14.145Z,15.90
2019-03-30T15:22:45.407Z,15.90
2019-03-30T15:25:16.858Z,15.80
2019-03-30T15:27:49.436Z,15.70
2019-03-30T15:30:20.700Z,15.60
2019-03-30T15:32:52.096Z,15.50
2019-03-30T15:35:23.603Z,15.50
2019-03-30T15:37:55.220Z,15.40
2019-03-30T15:40:26.903Z,15.40
2019-03-30T15:42:58.533Z,15.30
2019-03-30T15:45:29.771Z,15.10
2019-03-30T15:48:01.106Z,15.10
2019-03-30T15:50:33.190Z,15.00
2019-03-30T15:53:05.555Z,14.90
2019-03-30T15:55:37.131Z,14.90
2019-03-30T15:58:08.570Z,14.70
2019-03-30T16:00:39.668Z,14.70
2019-03-30T16:03:10.888Z,14.60
2019-03-30T16:05:42.238Z,14.50
2019-03-30T16:08:13.750Z,14.40
2019-03-30T16:10:44.882Z,14.40
2019-03-30T16:13:16.459Z,14.30
2019-03-30T16:15:47.852Z,14.30
2019-03-30T16:18:20.126Z,14.30
2019-03-30T16:20:52.057Z,14.20
2019-03-30T16:23:23.414Z,14.10
2019-03-30T16:25:54.874Z,14.10
2019-03-30T16:28:27.142Z,14.00
2019-03-30T16:30:58.561Z,14.00
2019-03-30T16:33:29.922Z,13.90
2019-03-30T16:36:02.775Z,13.80
2019-03-30T16:38:34.587Z,13.80
2019-03-30T16:41:05.741Z,13.70
2019-03-30T16:43:37.110Z,13.60
2019-03-30T16:46:08.506Z,13.60
2019-03-30T16:48:39.766Z,13.50
2019-03-30T16:51:11.123Z,13.50
2019-03-30T16:53:42.551Z,13.50
2019-03-30T16:56:13.777Z,13.50
2019-03-30T16:58:45.499Z,13.50
2019-03-30T17:01:16.653Z,13.50
2019-03-30T17:03:47.802Z,13.50
2019-03-30T17:06:20.297Z,13.40
2019-03-30T17:08:51.578Z,13.40
2019-03-30T17:11:22.992Z,13.40
2019-03-30T17:13:54.891Z,13.30
2019-03-30T17:16:26.302Z,13.30
2019-03-30T17:18:57.721Z,13.30
2019-03-30T17:21:28.869Z,13.30
2019-03-30T17:24:03.453Z,13.20
2019-03-30T17:26:35.095Z,13.20
2019-03-30T17:29:06.418Z,13.20
2019-03-30T17:31:38.070Z,13.20
2019-03-30T17:34:09.715Z,13.20
2019-03-30T17:36:41.279Z,13.20
2019-03-30T17:39:13.695Z,13.20
2019-03-30T17:41:45.244Z,13.10
2019-03-30T17:44:16.662Z,13.10
2019-03-30T17:46:48.158Z,13.10
2019-03-30T17:49:20.074Z,13.00
2019-03-30T17:51:53.977Z,13.00
2019-03-30T17:54:24.679Z,13.00
2019-03-30T17:56:56.203Z,12.90
2019-03-30T17:59:27.683Z,12.90
2019-03-30T18:01:59.057Z,12.90
2019-03-30T18:04:30.357Z,12.80
2019-03-30T18:07:01.923Z,12.80
2019-03-30T18:09:33.475Z,12.70
2019-03-30T18:12:04.931Z,12.70
2019-03-30T18:14:36.430Z,12.70
2019-03-30T18:17:08.029Z,12.70
2019-03-30T18:19:39.592Z,12.60
2019-03-30T18:22:11.034Z,12.60
2019-03-30T18:24:42.719Z,12.60
2019-03-30T18:27:14.460Z,12.60
2019-03-30T18:29:46.867Z,12.60
2019-03-30T18:32:18.569Z,12.50
2019-03-30T18:34:50.671Z,12.50
2019-03-30T18:37:22.405Z,12.50
2019-03-30T18:39:53.851Z,12.50
2019-03-30T18:42:25.897Z,12.40
2019-03-30T18:45:00.013Z,12.40
2019-03-30T18:47:31.131Z,12.30
2019-03-30T18:50:03.987Z,12.30
2019-03-30T18:52:36.101Z,12.20
2019-03-30T18:55:08.507Z,12.20
2019-03-30T18:57:40.318Z,12.20
2019-03-30T19:00:15.566Z,12.20
2019-03-30T19:02:47.070Z,12.20
2019-03-30T19:05:18.327Z,12.10
2019-03-30T19:07:49.511Z,12.10
2019-03-30T19:10:20.901Z,12.00
2019-03-30T19:12:53.543Z,12.10
2019-03-30T19:15:25.389Z,12.00
2019-03-30T19:17:56.848Z,12.00
2019-03-30T19:20:28.094Z,12.00
2019-03-30T19:22:59.430Z,12.00
2019-03-30T19:25:31.066Z,12.00
2019-03-30T19:28:02.611Z,11.90
2019-03-30T19:30:33.945Z,11.90
2019-03-30T19:33:05.493Z,11.90
2019-03-30T19:35:36.981Z,11.90
2019-03-30T19:38:10.924Z,11.80
2019-03-30T19:40:41.797Z,11.80
2019-03-30T19:43:13.258Z,11.80
2019-03-30T19:45:44.692Z,11.80
2019-03-30T19:48:16.335Z,11.70
2019-03-30T19:50:47.774Z,11.70
2019-03-30T19:53:19.039Z,11.70
2019-03-30T19:55:50.054Z,11.70
2019-03-30T19:58:21.656Z,11.60
2019-03-30T20:00:54.262Z,11.60
2019-03-30T20:03:26.621Z,11.60
2019-03-30T20:05:58.200Z,11.60
2019-03-30T20:08:29.812Z,11.60
2019-03-30T20:11:01.089Z,11.50
2019-03-30T20:13:32.403Z,11.50
2019-03-30T20:16:03.902Z,11.50
2019-03-30T20:18:36.579Z,11.40
2019-03-30T20:21:08.215Z,11.40
2019-03-30T20:23:39.477Z,11.40
2019-03-30T20:26:10.924Z,11.40
2019-03-30T20:28:42.159Z,11.40
2019-03-30T20:31:13.759Z,11.40
2019-03-30T20:33:45.539Z,11.40
2019-03-30T20:36:16.851Z,11.40
2019-03-30T20:38:47.945Z,11.40
2019-03-30T20:41:19.622Z,11.30
2019-03-30T20:43:50.788Z,11.30
2019-03-30T20:46:22.481Z,11.30
2019-03-30T20:48:54.304Z,11.20
2019-03-30T20:51:26.519Z,11.20
2019-03-30T20:53:58.161Z,11.10
2019-03-30T20:56:29.567Z,11.00
2019-03-30T20:59:00.802Z,11.00
2019-03-30T21:01:32.186Z,10.90
2019-03-30T21:04:03.329Z,10.80
2019-03-30T21:06:34.986Z,10.80
2019-03-30T21:09:08.027Z,10.70
2019-03-30T21:11:39.258Z,10.60
2019-03-30T21:14:10.532Z,10.60
2019-03-30T21:16:42.004Z,10.50
2019-03-30T21:19:13.474Z,10.50
2019-03-30T21:21:44.842Z,10.40
2019-03-30T21:24:16.406Z,10.40
2019-03-30T21:26:48.168Z,10.30
2019-03-30T21:29:19.359Z,10.20
2019-03-30T21:31:51.372Z,10.20
2019-03-30T21:34:24.000Z,10.10
2019-03-30T21:36:55.788Z,10.00
2019-03-30T21:39:27.318Z,10.00
2019-03-30T21:41:58.763Z,10.00
2019-03-30T21:44:29.946Z,9.90
2019-03-30T21:47:01.439Z,9.90
2019-03-30T21:49:32.844Z,9.80
2019-03-30T21:52:04.521Z,9.80
2019-03-30T21:54:36.054Z,9.70
2019-03-30T21:57:07.534Z,9.70
2019-03-30T21:59:38.639Z,9.70
2019-03-30T22:02:10.074Z,9.70
2019-03-30T22:04:41.627Z,9.70
2019-03-30T22:07:13.274Z,9.60
2019-03-30T22:09:44.474Z,9.60
2019-03-30T22:12:15.911Z,9.60
2019-03-30T22:14:47.303Z,9.60
2019-03-30T22:17:20.372Z,9.50
2019-03-30T22:19:51.743Z,9.50
2019-03-30T22:22:23.002Z,9.50
2019-03-30T22:24:54.356Z,9.40
2019-03-30T22:27:25.805Z,9.40
2019-03-30T22:29:57.463Z,9.30
2019-03-30T22:32:29.958Z,9.30
2019-03-30T22:35:02.305Z,9.20
2019-03-30T22:37:33.794Z,9.20
2019-03-30T22:40:05.778Z,9.10
2019-03-30T22:42:37.292Z,9.10
2019-03-30T22:45:09.659Z,8.90
2019-03-30T22:47:41.147Z,8.90
2019-03-30T22:50:12.778Z,8.90
2019-03-30T22:52:44.635Z,8.90
2019-03-30T22:55:15.900Z,8.80
2019-03-30T22:57:47.399Z,8.80
2019-03-30T23:00:39.514Z,8.80
2019-03-30T23:03:13.320Z,8.80
2019-03-30T23:05:44.897Z,8.70
2019-03-30T23:08:16.128Z,8.70
2019-03-30T23:10:47.705Z,8.60
2019-03-30T23:13:19.196Z,8.60
2019-03-30T23:15:50.934Z,8.60
2019-03-30T23:18:22.336Z,8.60
2019-03-30T23:20:54.150Z,8.60
2019-03-30T23:23:25.472Z,8.50
2019-03-30T23:25:57.186Z,8.50
2019-03-30T23:28:28.619Z,8.50
2019-03-30T23:30:59.993Z,8.50
2019-03-30T23:33:31.545Z,8.50
2019-03-30T23:36:03.302Z,8.50
2019-03-30T23:38:35.246Z,8.40
2019-03-30T23:41:06.788Z,8.40
2019-03-30T23:43:38.281Z,8.30
2019-03-30T23:46:09.447Z,8.30
2019-03-30T23:48:40.865Z,8.30
2019-03-30T23:51:12.297Z,8.30
2019-03-30T23:53:43.964Z,8.30
2019-03-30T23:56:23.176Z,8.30
2019-03-30T23:58:54.593Z,8.30
